createdAt,value
2023-04-18T00:02:09.057Z,85.72
2023-04-18T00:04:36.797Z,85.05
2023-04-18T00:07:04.440Z,85.50
2023-04-18T00:09:31.947Z,84.60
2023-04-18T00:11:59.477Z,86.32
2023-04-18T00:14:30.098Z,86.88
2023-04-18T00:16:57.637Z,88.39
2023-04-18T00:19:25.163Z,88.34
2023-04-18T00:21:53.431Z,88.81
2023-04-18T00:24:21.075Z,87.55
2023-04-18T00:26:51.685Z,88.89
2023-04-18T00:29:19.170Z,90.33
2023-04-18T00:31:47.976Z,90.27
2023-04-18T00:34:15.611Z,87.25
2023-04-18T00:36:43.193Z,88.62
2023-04-18T00:39:10.715Z,89.96
2023-04-18T00:41:38.216Z,90.45
2023-04-18T00:44:06.129Z,89.25
2023-04-18T00:46:33.807Z,89.94
2023-04-18T00:49:03.184Z,89.58
2023-04-18T00:51:30.668Z,89.04
2023-04-18T00:53:58.406Z,88.62
2023-04-18T00:56:25.945Z,91.25
2023-04-18T00:58:53.487Z,89.55
2023-04-18T01:01:21.343Z,89.99
2023-04-18T01:03:48.984Z,87.73
2023-04-18T01:06:18.013Z,88.83
2023-04-18T01:08:45.872Z,87.17
2023-04-18T01:11:13.358Z,87.05
2023-04-18T01:13:40.862Z,88.51
2023-04-18T01:16:08.626Z,90.31
2023-04-18T01:18:37.094Z,90.27
2023-04-18T01:21:06.205Z,90.39
2023-04-18T01:23:35.094Z,90.29
2023-04-18T01:26:03.911Z,89.85
2023-04-18T01:28:31.402Z,89.91
2023-04-18T01:30:58.947Z,90.00
2023-04-18T01:33:26.454Z,91.00
2023-04-18T01:35:53.977Z,90.66
2023-04-18T01:38:21.448Z,91.97
2023-04-18T01:40:48.936Z,90.38
2023-04-18T01:43:17.751Z,89.96
2023-04-18T01:45:45.245Z,89.00
2023-04-18T01:48:12.730Z,89.53
2023-04-18T01:50:40.352Z,89.19
2023-04-18T01:53:07.842Z,89.24
2023-04-18T01:55:36.464Z,88.13
2023-04-18T01:58:03.972Z,89.81
2023-04-18T02:00:32.831Z,88.53
2023-04-18T02:03:00.584Z,88.84
2023-04-18T02:05:28.321Z,88.53
2023-04-18T02:07:55.992Z,90.08
2023-04-18T02:10:23.708Z,90.28
2023-04-18T02:12:51.232Z,88.83
2023-04-18T02:15:19.007Z,90.15
2023-04-18T02:17:49.051Z,90.35
2023-04-18T02:20:16.598Z,90.03
2023-04-18T02:22:44.425Z,88.83
2023-04-18T02:25:11.987Z,90.81
2023-04-18T02:27:39.475Z,91.01
2023-04-18T02:30:08.225Z,89.86
2023-04-18T02:32:35.915Z,89.17
2023-04-18T02:35:05.347Z,89.59
2023-04-18T02:37:32.837Z,88.63
2023-04-18T02:40:00.391Z,89.41
2023-04-18T02:42:27.908Z,88.67
2023-04-18T02:44:55.477Z,89.77
2023-04-18T02:47:22.942Z,89.21
2023-04-18T02:49:50.859Z,89.27
2023-04-18T02:52:19.663Z,89.50
2023-04-18T02:54:47.159Z,90.29
2023-04-18T02:57:14.651Z,89.63
2023-04-18T02:59:42.142Z,90.29
2023-04-18T03:02:09.715Z,89.17
2023-04-18T03:04:37.243Z,89.93
2023-04-18T03:07:04.759Z,88.84
2023-04-18T03:09:33.565Z,89.70
2023-04-18T03:12:02.113Z,90.88
2023-04-18T03:14:29.654Z,90.50
2023-04-18T03:16:57.227Z,90.26
2023-04-18T03:19:24.741Z,91.12
2023-04-18T03:21:54.305Z,89.93
2023-04-18T03:24:21.824Z,90.46
2023-04-18T03:26:50.715Z,90.05
2023-04-18T03:29:18.201Z,90.56
2023-04-18T03:31:45.907Z,89.20
2023-04-18T03:34:13.761Z,89.60
2023-04-18T03:36:41.396Z,89.99
2023-04-18T03:39:08.916Z,89.89
2023-04-18T03:41:36.406Z,89.64
2023-04-18T03:44:05.582Z,89.73
2023-04-18T03:46:33.104Z,89.74
2023-04-18T03:49:00.844Z,89.63
2023-04-18T03:51:28.430Z,89.79
2023-04-18T03:53:55.913Z,89.40
2023-04-18T03:56:23.441Z,89.11
2023-04-18T03:58:50.956Z,88.79
2023-04-18T04:01:19.790Z,89.04
2023-04-18T04:03:47.502Z,89.82
2023-04-18T04:06:15.569Z,89.80
2023-04-18T04:08:43.071Z,89.73
2023-04-18T04:11:10.573Z,89.59
2023-04-18T04:13:38.063Z,88.64
2023-04-18T04:16:06.594Z,88.60
2023-04-18T04:18:35.470Z,88.02
2023-04-18T04:21:04.102Z,88.27
2023-04-18T04:23:31.602Z,88.85
2023-04-18T04:25:59.258Z,88.80
2023-04-18T04:28:26.778Z,89.21
2023-04-18T04:30:55.480Z,88.76
2023-04-18T04:33:25.111Z,88.72
2023-04-18T04:35:54.273Z,89.04
2023-04-18T04:38:22.994Z,89.32
2023-04-18T04:40:50.959Z,89.35
2023-04-18T04:43:20.576Z,88.98
2023-04-18T04:45:49.556Z,88.61
2023-04-18T04:48:18.758Z,87.81
2023-04-18T04:50:54.271Z,87.39
2023-04-18T04:53:21.962Z,87.07
2023-04-18T04:55:49.756Z,88.07
2023-04-18T04:58:17.264Z,88.44
2023-04-18T05:00:44.738Z,88.25
2023-04-18T05:03:12.366Z,87.68
2023-04-18T05:05:40.234Z,88.03
2023-04-18T05:08:09.100Z,87.10
2023-04-18T05:10:37.412Z,87.96
2023-04-18T05:13:05.139Z,87.24
2023-04-18T05:15:32.704Z,87.95
2023-04-18T05:18:00.360Z,86.72
2023-04-18T05:20:27.848Z,88.28
2023-04-18T05:22:55.365Z,87.26
2023-04-18T05:25:24.158Z,87.01
2023-04-18T05:27:52.027Z,85.70
2023-04-18T05:30:19.729Z,85.52
2023-04-18T05:32:47.262Z,86.20
2023-04-18T05:35:14.810Z,87.27
2023-04-18T05:37:42.325Z,87.04
2023-04-18T05:40:10.799Z,86.53
2023-04-18T05:42:39.626Z,86.85
2023-04-18T05:45:08.085Z,86.09
2023-04-18T05:47:35.650Z,86.77
2023-04-18T05:50:03.288Z,86.06
2023-04-18T05:52:31.247Z,85.47
2023-04-18T05:54:58.746Z,86.06
2023-04-18T05:57:26.323Z,85.17
2023-04-18T05:59:55.116Z,85.10
2023-04-18T06:02:22.836Z,85.27
2023-04-18T06:04:51.525Z,85.07
2023-04-18T06:07:19.208Z,84.75
2023-04-18T06:09:46.677Z,84.86
2023-04-18T06:12:14.170Z,84.22
2023-04-18T06:14:41.654Z,84.85
2023-04-18T06:17:12.536Z,83.88
2023-04-18T06:19:40.223Z,84.62
2023-04-18T06:22:08.071Z,83.75
2023-04-18T06:24:35.648Z,83.88
2023-04-18T06:27:03.201Z,83.66
2023-04-18T06:29:33.103Z,84.69
2023-04-18T06:32:00.739Z,83.20
2023-04-18T06:34:29.576Z,82.94
2023-04-18T06:36:57.059Z,82.07
2023-04-18T06:39:24.681Z,82.17
2023-04-18T06:41:52.197Z,81.34
2023-04-18T06:44:19.676Z,82.82
2023-04-18T06:46:47.257Z,81.60
2023-04-18T06:49:14.746Z,80.52
2023-04-18T06:51:43.556Z,81.68
2023-04-18T06:54:11.381Z,80.44
2023-04-18T06:56:38.921Z,80.36
2023-04-18T06:59:06.416Z,79.92
2023-04-18T07:01:34.141Z,80.58
2023-04-18T07:04:04.602Z,78.68
2023-04-18T07:06:32.278Z,80.45
2023-04-18T07:09:01.565Z,79.85
2023-04-18T07:11:29.373Z,79.12
2023-04-18T07:13:56.877Z,78.01
2023-04-18T07:16:24.420Z,79.14
2023-04-18T07:18:52.551Z,78.52
2023-04-18T07:21:20.223Z,78.15
2023-04-18T07:23:47.720Z,77.64
2023-04-18T07:26:16.570Z,80.21
2023-04-18T07:28:44.047Z,76.64
2023-04-18T07:31:14.407Z,77.55
2023-04-18T07:33:43.262Z,77.22
2023-04-18T07:36:10.894Z,76.43
2023-04-18T07:38:38.399Z,73.54
2023-04-18T07:41:05.941Z,76.97
2023-04-18T07:43:34.783Z,75.85
2023-04-18T07:46:02.467Z,75.96
2023-04-18T07:48:29.982Z,74.49
2023-04-18T07:50:57.577Z,76.32
2023-04-18T07:53:25.101Z,73.71
2023-04-18T07:55:54.381Z,74.49
2023-04-18T07:58:22.023Z,74.95
2023-04-18T08:00:50.862Z,75.33
2023-04-18T08:03:18.522Z,70.38
2023-04-18T08:05:46.212Z,77.83
2023-04-18T08:08:13.827Z,74.84
2023-04-18T08:10:41.376Z,72.47
2023-04-18T08:13:09.485Z,69.98
2023-04-18T08:15:37.079Z,74.38
2023-04-18T08:18:06.157Z,72.02
2023-04-18T08:20:34.325Z,74.97
2023-04-18T08:23:08.617Z,72.21
2023-04-18T08:25:37.191Z,72.78
2023-04-18T08:28:04.837Z,72.58
2023-04-18T08:30:32.520Z,72.68
2023-04-18T08:33:00.320Z,73.60
2023-04-18T08:35:29.296Z,73.96
2023-04-18T08:37:56.805Z,72.42
2023-04-18T08:40:24.484Z,72.60
2023-04-18T08:42:53.808Z,71.25
2023-04-18T08:45:21.451Z,72.53
2023-04-18T08:47:49.055Z,71.91
2023-04-18T08:50:18.423Z,68.88
2023-04-18T08:52:48.747Z,72.49
2023-04-18T08:55:16.818Z,70.34
2023-04-18T08:57:44.876Z,69.26
2023-04-18T09:00:13.652Z,63.38
2023-04-18T09:02:43.605Z,65.22
2023-04-18T09:05:12.940Z,66.78
2023-04-18T09:07:40.592Z,68.00
2023-04-18T09:10:10.975Z,68.27
2023-04-18T09:12:44.617Z,64.94
2023-04-18T09:15:14.086Z,65.61
2023-04-18T09:17:43.569Z,65.90
2023-04-18T09:20:12.007Z,68.23
2023-04-18T09:22:47.758Z,67.60
2023-04-18T09:25:27.366Z,65.44
2023-04-18T09:27:55.076Z,66.27
2023-04-18T09:30:39.254Z,65.55
2023-04-18T09:33:09.493Z,65.47
2023-04-18T09:35:37.698Z,66.86
2023-04-18T09:38:05.556Z,66.91
2023-04-18T09:40:34.630Z,66.86
2023-04-18T09:43:02.262Z,66.18
2023-04-18T09:45:29.779Z,68.54
2023-04-18T09:47:57.291Z,66.47
2023-04-18T09:50:24.790Z,67.50
2023-04-18T09:52:52.252Z,67.22
2023-04-18T09:55:20.447Z,67.33
2023-04-18T09:57:49.937Z,67.44
2023-04-18T10:00:24.095Z,67.23
2023-04-18T10:02:55.110Z,63.30
2023-04-18T10:05:26.266Z,66.35
2023-04-18T10:07:54.865Z,66.38
2023-04-18T10:10:22.560Z,67.91
2023-04-18T10:12:53.718Z,66.41
2023-04-18T10:15:22.520Z,65.74
2023-04-18T10:18:04.476Z,68.46
2023-04-18T10:20:33.425Z,68.05
2023-04-18T10:23:01.294Z,67.84
2023-04-18T10:25:51.526Z,68.63
2023-04-18T10:28:21.402Z,66.95
2023-04-18T10:30:56.840Z,67.31
2023-04-18T10:33:32.162Z,64.15
2023-04-18T10:36:02.204Z,66.41
2023-04-18T10:38:30.058Z,65.02
2023-04-18T10:41:17.548Z,65.31
2023-04-18T10:44:19.420Z,64.92
2023-04-18T10:47:33.096Z,65.15
2023-04-18T10:50:06.192Z,65.03
2023-04-18T10:52:34.205Z,65.54
2023-04-18T10:55:18.695Z,64.48
2023-04-18T10:57:47.437Z,64.87
2023-04-18T11:00:18.052Z,65.08
2023-04-18T11:02:53.738Z,64.20
2023-04-18T11:05:23.606Z,66.01
2023-04-18T11:07:51.665Z,63.01
2023-04-18T11:10:20.761Z,64.16
2023-04-18T11:12:48.646Z,63.20
2023-04-18T11:15:21.613Z,63.42
2023-04-18T11:17:57.466Z,63.67
2023-04-18T11:20:25.117Z,60.52
2023-04-18T11:22:54.041Z,63.31
2023-04-18T11:25:25.098Z,63.64
2023-04-18T11:27:52.645Z,64.75
2023-04-18T11:30:21.660Z,61.18
2023-04-18T11:32:49.183Z,63.21
2023-04-18T11:35:17.373Z,63.88
2023-04-18T11:37:45.876Z,64.49
2023-04-18T11:40:14.396Z,61.90
2023-04-18T11:42:42.518Z,61.80
2023-04-18T11:45:11.777Z,59.38
2023-04-18T11:47:41.936Z,62.26
2023-04-18T11:50:11.352Z,61.64
2023-04-18T11:52:40.865Z,62.78
2023-04-18T11:55:13.957Z,62.95
2023-04-18T11:57:42.195Z,63.28
2023-04-18T12:00:12.260Z,62.55
2023-04-18T12:02:42.765Z,64.52
2023-04-18T12:05:11.633Z,63.64
2023-04-18T12:07:40.777Z,62.88
2023-04-18T12:10:09.761Z,61.77
2023-04-18T12:12:37.369Z,62.41
2023-04-18T12:15:08.829Z,62.24
2023-04-18T12:17:37.354Z,62.54
2023-04-18T12:20:10.026Z,58.97
2023-04-18T12:22:38.715Z,60.64
2023-04-18T12:25:20.143Z,64.06
2023-04-18T12:27:51.778Z,57.81
2023-04-18T12:30:21.923Z,59.31
2023-04-18T12:32:51.188Z,61.49
2023-04-18T12:35:20.753Z,61.26
2023-04-18T12:37:48.683Z,63.08
2023-04-18T12:40:18.899Z,61.37
2023-04-18T12:42:47.030Z,60.68
2023-04-18T12:45:15.534Z,63.35
2023-04-18T12:47:44.496Z,61.04
2023-04-18T12:50:12.989Z,60.40
2023-04-18T12:52:42.361Z,61.94
2023-04-18T12:55:10.706Z,62.41
2023-04-18T12:57:38.557Z,62.93
2023-04-18T13:00:10.382Z,63.06
2023-04-18T13:02:39.080Z,62.82
2023-04-18T13:05:07.858Z,64.44
2023-04-18T13:07:37.325Z,63.17
2023-04-18T13:10:07.505Z,63.00
2023-04-18T13:12:35.394Z,64.40
2023-04-18T13:15:03.526Z,64.62
2023-04-18T13:17:31.045Z,65.01
2023-04-18T13:19:58.570Z,65.04
2023-04-18T13:22:26.111Z,63.86
2023-04-18T13:24:53.593Z,64.54
2023-04-18T13:27:22.416Z,63.16
2023-04-18T13:29:49.999Z,62.44
2023-04-18T13:32:17.776Z,64.95
2023-04-18T13:34:47.463Z,63.69
2023-04-18T13:37:15.562Z,64.02
2023-04-18T13:39:43.049Z,62.65
2023-04-18T13:42:10.630Z,64.22
2023-04-18T13:44:39.759Z,65.77
2023-04-18T13:47:08.363Z,66.30
2023-04-18T13:49:36.321Z,65.25
2023-04-18T13:52:04.332Z,65.75
2023-04-18T13:54:33.383Z,62.83
2023-04-18T13:57:03.104Z,65.25
2023-04-18T13:59:32.414Z,65.00
2023-04-18T14:02:01.473Z,66.48
2023-04-18T14:04:29.555Z,65.65
2023-04-18T14:06:57.213Z,66.66
2023-04-18T14:09:24.694Z,65.73
2023-04-18T14:11:52.188Z,65.95
2023-04-18T14:14:19.686Z,64.82
2023-04-18T14:16:47.195Z,65.29
2023-04-18T14:19:16.106Z,65.89
2023-04-18T14:21:43.883Z,67.53
2023-04-18T14:24:11.408Z,65.16
2023-04-18T14:26:38.909Z,66.58
2023-04-18T14:29:06.469Z,67.09
2023-04-18T14:31:34.047Z,67.33
2023-04-18T14:34:01.667Z,66.91
2023-04-18T14:36:30.908Z,68.43
2023-04-18T14:38:59.063Z,68.98
2023-04-18T14:41:26.841Z,66.03
2023-04-18T14:43:54.379Z,66.07
2023-04-18T14:46:22.382Z,67.40
2023-04-18T14:48:49.942Z,67.92
2023-04-18T14:51:17.574Z,67.55
2023-04-18T14:53:46.551Z,66.63
2023-04-18T14:56:15.077Z,68.52
2023-04-18T14:58:43.827Z,67.74
2023-04-18T15:01:11.364Z,64.31
2023-04-18T15:03:39.005Z,64.55
2023-04-18T15:06:07.237Z,65.57
2023-04-18T15:08:34.761Z,67.71
2023-04-18T15:11:06.647Z,67.06
2023-04-18T15:13:34.307Z,69.65
2023-04-18T15:16:01.926Z,68.64
2023-04-18T15:18:29.525Z,69.51
2023-04-18T15:20:57.527Z,69.58
2023-04-18T15:23:25.017Z,69.30
2023-04-18T15:25:52.522Z,69.87
2023-04-18T15:28:21.372Z,70.30
2023-04-18T15:30:48.893Z,69.72
2023-04-18T15:33:17.842Z,68.15
2023-04-18T15:35:45.473Z,69.00
2023-04-18T15:38:12.993Z,68.44
2023-04-18T15:40:40.768Z,69.88
2023-04-18T15:43:08.344Z,70.17
2023-04-18T15:45:37.158Z,69.99
2023-04-18T15:48:04.957Z,69.23
2023-04-18T15:50:33.826Z,68.87
2023-04-18T15:53:01.592Z,69.89
2023-04-18T15:55:29.151Z,68.88
2023-04-18T15:57:56.693Z,68.02
2023-04-18T16:00:24.388Z,69.21
2023-04-18T16:02:53.288Z,68.88
2023-04-18T16:05:20.838Z,67.27
2023-04-18T16:07:48.372Z,68.67
2023-04-18T16:10:15.972Z,66.58
2023-04-18T16:12:43.503Z,65.34
2023-04-18T16:15:11.806Z,68.05
2023-04-18T16:17:39.585Z,69.17
2023-04-18T16:20:09.462Z,69.94
2023-04-18T16:22:37.380Z,69.70
2023-04-18T16:25:05.439Z,69.91
2023-04-18T16:27:33.256Z,69.42
2023-04-18T16:30:01.094Z,69.00
2023-04-18T16:32:28.683Z,69.43
2023-04-18T16:34:56.216Z,70.81
2023-04-18T16:37:25.044Z,69.28
2023-04-18T16:39:52.566Z,70.65
2023-04-18T16:42:20.029Z,69.04
2023-04-18T16:44:48.325Z,70.66
2023-04-18T16:47:15.996Z,70.40
2023-04-18T16:49:46.517Z,70.41
2023-04-18T16:52:14.160Z,69.14
2023-04-18T16:54:43.025Z,69.46
2023-04-18T16:57:10.732Z,69.88
2023-04-18T16:59:38.266Z,70.74
2023-04-18T17:02:06.762Z,70.13
2023-04-18T17:04:34.579Z,69.07
2023-04-18T17:07:02.097Z,70.56
2023-04-18T17:09:29.616Z,69.40
2023-04-18T17:11:58.961Z,68.89
2023-04-18T17:14:26.504Z,70.10
2023-04-18T17:16:54.206Z,68.91
2023-04-18T17:19:21.821Z,70.54
2023-04-18T17:21:50.936Z,71.09
2023-04-18T17:24:18.759Z,71.27
2023-04-18T17:26:46.271Z,70.76
2023-04-18T17:29:15.556Z,71.25
2023-04-18T17:31:43.304Z,71.18
2023-04-18T17:34:10.861Z,71.61
2023-04-18T17:36:38.394Z,69.62
2023-04-18T17:39:06.598Z,69.76
2023-04-18T17:41:36.520Z,71.23
2023-04-18T17:44:04.260Z,71.45
2023-04-18T17:46:33.275Z,70.88
2023-04-18T17:49:00.844Z,71.21
2023-04-18T17:51:28.339Z,71.37
2023-04-18T17:53:56.017Z,71.91
2023-04-18T17:56:23.859Z,71.60
2023-04-18T17:58:51.432Z,69.69
2023-04-18T18:01:19.821Z,71.08
2023-04-18T18:03:49.295Z,71.25
2023-04-18T18:06:16.991Z,70.10
2023-04-18T18:08:44.589Z,70.23
2023-04-18T18:11:12.132Z,71.12
2023-04-18T18:13:39.890Z,69.32
2023-04-18T18:16:08.728Z,69.73
2023-04-18T18:18:36.821Z,71.38
2023-04-18T18:21:05.753Z,72.01
2023-04-18T18:23:33.289Z,71.37
2023-04-18T18:26:01.240Z,71.89
2023-04-18T18:28:28.836Z,72.07
2023-04-18T18:30:56.367Z,70.33
2023-04-18T18:33:24.045Z,71.74
2023-04-18T18:35:51.706Z,70.27
2023-04-18T18:38:20.575Z,70.61
2023-04-18T18:40:48.137Z,70.34
2023-04-18T18:43:15.661Z,69.98
2023-04-18T18:45:43.213Z,69.03
2023-04-18T18:48:11.543Z,68.68
2023-04-18T18:50:39.064Z,68.11
2023-04-18T18:53:06.778Z,68.29
2023-04-18T18:55:35.552Z,67.13
2023-04-18T18:58:03.155Z,67.31
2023-04-18T19:00:30.632Z,67.11
2023-04-18T19:02:58.246Z,67.18
2023-04-18T19:05:26.012Z,66.53
2023-04-18T19:07:53.942Z,66.80
2023-04-18T19:10:21.733Z,66.64
2023-04-18T19:12:50.556Z,66.64
2023-04-18T19:15:18.111Z,66.91
2023-04-18T19:17:45.718Z,66.59
2023-04-18T19:20:13.297Z,67.36
2023-04-18T19:22:40.783Z,66.79
2023-04-18T19:25:09.764Z,66.50
2023-04-18T19:27:37.251Z,66.31
2023-04-18T19:30:07.416Z,67.19
2023-04-18T19:32:34.955Z,65.87
2023-04-18T19:35:02.466Z,66.26
2023-04-18T19:37:29.970Z,67.20
2023-04-18T19:39:57.462Z,65.83
2023-04-18T19:42:25.023Z,66.32
2023-04-18T19:44:52.529Z,66.63
2023-04-18T19:47:21.388Z,66.77
2023-04-18T19:49:48.908Z,67.17
2023-04-18T19:52:16.578Z,66.22
2023-04-18T19:54:44.066Z,66.97
2023-04-18T19:57:11.696Z,65.97
2023-04-18T19:59:39.315Z,65.61
2023-04-18T20:02:07.202Z,65.20
2023-04-18T20:04:36.444Z,66.36
2023-04-18T20:07:04.269Z,65.34
2023-04-18T20:09:31.785Z,65.49
2023-04-18T20:12:00.445Z,64.98
2023-04-18T20:14:28.434Z,64.30
2023-04-18T20:16:56.074Z,64.15
2023-04-18T20:19:25.608Z,64.86
2023-04-18T20:21:54.461Z,64.74
2023-04-18T20:24:21.988Z,64.02
2023-04-18T20:26:49.491Z,64.56
2023-04-18T20:29:17.071Z,63.51
2023-04-18T20:31:44.565Z,64.67
2023-04-18T20:34:12.215Z,63.83
2023-04-18T20:36:41.565Z,63.47
2023-04-18T20:39:10.458Z,62.72
2023-04-18T20:41:38.478Z,62.79
2023-04-18T20:44:06.726Z,62.98
2023-04-18T20:46:34.383Z,64.13
2023-04-18T20:49:02.067Z,63.48
2023-04-18T20:51:29.866Z,63.54
2023-04-18T20:53:57.359Z,64.16
2023-04-18T20:56:26.195Z,65.43
2023-04-18T20:58:53.662Z,63.92
2023-04-18T21:01:21.590Z,64.41
2023-04-18T21:03:49.260Z,65.46
2023-04-18T21:06:19.068Z,65.06
2023-04-18T21:08:46.545Z,65.01
2023-04-18T21:11:14.289Z,66.44
2023-04-18T21:13:43.070Z,65.46
2023-04-18T21:16:11.153Z,66.17
2023-04-18T21:18:38.704Z,66.15
2023-04-18T21:21:07.131Z,66.14
2023-04-18T21:23:34.606Z,65.61
2023-04-18T21:26:02.153Z,65.76
2023-04-18T21:28:29.652Z,65.45
2023-04-18T21:30:58.439Z,65.41
2023-04-18T21:33:26.197Z,65.54
2023-04-18T21:35:53.701Z,66.27
2023-04-18T21:38:25.216Z,65.54
2023-04-18T21:40:52.689Z,65.33
2023-04-18T21:43:21.388Z,64.59
2023-04-18T21:45:48.937Z,65.45
2023-04-18T21:48:17.792Z,65.28
2023-04-18T21:50:45.384Z,64.95
2023-04-18T21:53:12.853Z,63.59
2023-04-18T21:55:40.375Z,62.82
2023-04-18T21:58:08.037Z,62.96
2023-04-18T22:00:35.534Z,62.10
2023-04-18T22:03:03.150Z,62.75
2023-04-18T22:05:33.288Z,62.78
2023-04-18T22:08:00.794Z,62.49
2023-04-18T22:10:28.281Z,63.38
2023-04-18T22:12:55.986Z,62.49
2023-04-18T22:15:23.779Z,62.71
2023-04-18T22:17:51.298Z,62.68
2023-04-18T22:20:18.871Z,63.19
2023-04-18T22:22:47.652Z,62.55
2023-04-18T22:25:15.264Z,63.61
2023-04-18T22:27:43.084Z,63.60
2023-04-18T22:30:11.470Z,63.02
2023-04-18T22:32:39.012Z,63.36
2023-04-18T22:35:07.619Z,63.69
2023-04-18T22:37:35.099Z,63.11
2023-04-18T22:40:05.254Z,63.54
2023-04-18T22:42:33.736Z,63.78
2023-04-18T22:45:01.498Z,63.68
2023-04-18T22:47:29.033Z,64.40
2023-04-18T22:49:56.574Z,64.21
2023-04-18T22:52:25.023Z,63.66
2023-04-18T22:54:52.574Z,62.71
2023-04-18T22:57:21.713Z,63.83
2023-04-18T22:59:49.205Z,62.94
2023-04-18T23:02:16.848Z,62.10
2023-04-18T23:04:46.223Z,60.85
2023-04-18T23:07:13.981Z,60.59
2023-04-18T23:09:41.476Z,59.74
2023-04-18T23:12:09.032Z,58.71
2023-04-18T23:14:38.876Z,60.40
2023-04-18T23:17:06.376Z,58.30
2023-04-18T23:19:33.858Z,58.56
2023-04-18T23:22:01.372Z,58.01
2023-04-18T23:24:28.869Z,59.73
2023-04-18T23:26:57.006Z,58.70
2023-04-18T23:29:24.591Z,59.10
2023-04-18T23:31:53.459Z,58.98
2023-04-18T23:34:21.111Z,58.46
2023-04-18T23:36:48.565Z,57.34
2023-04-18T23:39:18.409Z,55.55
2023-04-18T23:41:46.031Z,55.06
2023-04-18T23:44:13.828Z,54.64
2023-04-18T23:46:41.726Z,53.97
2023-04-18T23:49:10.630Z,54.22
2023-04-18T23:51:38.579Z,54.17
2023-04-18T23:54:06.422Z,53.76
2023-04-18T23:56:34.538Z,54.11
2023-04-18T23:59:02.055Z,55.59
